This is the latest recevied weather packets stored in our database for station/object KF0FSA. If no packets are shown the sender has not sent any weather packets the latest 10 day(s).
| Time | Temp. | Humidity | Pressure | Rain* | Wind** | Luminosity | Snow |
|---|---|---|---|---|---|---|---|
| 1777125537 | 7.78° C | 87% | 962.6 hPa | 0.25 mm | - | 97 W/m² | - |
| 1777125237 | 7.78° C | 87% | 963.2 hPa | 0.25 mm | - | 41 W/m² | - |
| 1777124937 | 7.78° C | 87% | 962.9 hPa | 0 mm | - | 52 W/m² | - |
| 1777124637 | 7.78° C | 87% | 962.6 hPa | 0 mm | - | 79 W/m² | - |
| 1777124335 | 7.78° C | 86% | 962.4 hPa | 0 mm | - | 74 W/m² | - |
| 1777124035 | 7.78° C | 85% | 962.9 hPa | 0 mm | - | 47 W/m² | - |
| 1777123735 | 7.78° C | 84% | 963.2 hPa | 0 mm | - | 32 W/m² | - |
| 1777123435 | 7.78° C | 84% | 963.1 hPa | 0 mm | - | 36 W/m² | - |
| 1777123259 | 7.78° C | 84% | 962.7 hPa | 0 mm | - | 77 W/m² | - |
| 1777122836 | 7.78° C | 83% | 963.1 hPa | 0 mm | - | 37 W/m² | - |
| 1777122659 | 7.78° C | 83% | 962.9 hPa | 0 mm | - | 68 W/m² | - |
| 1777122235 | 7.78° C | 83% | 963 hPa | 0 mm | - | 65 W/m² | - |
| 1777121934 | 7.78° C | 83% | 962.9 hPa | 0 mm | - | 66 W/m² | - |
| 1777121635 | 7.78° C | 83% | 962.8 hPa | 0 mm | - | 53 W/m² | - |
| 1777121336 | 7.78° C | 83% | 962.7 hPa | 0 mm | - | 37 W/m² | - |
| 1777121035 | 7.78° C | 83% | 962.8 hPa | 0 mm | - | 41 W/m² | - |
| 1777120735 | 7.78° C | 83% | 962.7 hPa | 0 mm | - | 36 W/m² | - |
| 1777120433 | 7.78° C | 82% | 962.6 hPa | 0 mm | - | 37 W/m² | - |
| 1777120130 | 7.78° C | 82% | 962.9 hPa | 0 mm | - | 38 W/m² | - |
| 1777119830 | 7.78° C | 82% | 962.6 hPa | 0 mm | - | 31 W/m² | - |
| 1777119530 | 7.78° C | 82% | 962.3 hPa | 0 mm | - | 22 W/m² | - |
| 1777119226 | 7.78° C | 81% | 962 hPa | 0 mm | - | 11 W/m² | - |
| 1777118926 | 7.78° C | 81% | 962 hPa | 0 mm | - | 9 W/m² | - |
| 1777118758 | 7.78° C | 81% | 961.6 hPa | 0 mm | - | 7 W/m² | - |
| 1777118327 | 7.78° C | 81% | 962 hPa | 0 mm | - | 4 W/m² | - |
* Rain latest hour (hover to see other rain measurements)
** Current wind speed in m/s (hover to see current wind gust speed)